createdAt,value
2023-04-11T00:02:16.364Z,1.58
2023-04-11T00:04:43.026Z,2.50
2023-04-11T00:07:09.544Z,1.60
2023-04-11T00:09:35.929Z,1.63
2023-04-11T00:12:02.408Z,1.50
2023-04-11T00:14:28.953Z,1.60
2023-04-11T00:16:55.421Z,2.90
2023-04-11T00:19:21.917Z,1.90
2023-04-11T00:21:48.282Z,1.77
2023-04-11T00:24:14.703Z,1.08
2023-04-11T00:26:41.137Z,3.17
2023-04-11T00:29:07.789Z,2.88
2023-04-11T00:31:34.304Z,1.70
2023-04-11T00:34:00.734Z,2.17
2023-04-11T00:36:27.317Z,2.25
2023-04-11T00:38:54.183Z,1.92
2023-04-11T00:41:20.841Z,2.53
2023-04-11T00:43:47.365Z,3.63
2023-04-11T00:46:13.772Z,2.70
2023-04-11T00:48:40.268Z,2.22
2023-04-11T00:51:06.685Z,3.50
2023-04-11T00:53:33.147Z,2.72
2023-04-11T00:55:59.601Z,3.58
2023-04-11T00:58:26.024Z,4.25
2023-04-11T01:00:52.472Z,3.92
2023-04-11T01:03:19.041Z,3.33
2023-04-11T01:05:45.701Z,4.93
2023-04-11T01:08:12.119Z,3.88
2023-04-11T01:10:38.843Z,3.75
2023-04-11T01:13:05.282Z,5.60
2023-04-11T01:15:31.713Z,5.32
2023-04-11T01:17:58.176Z,5.18
2023-04-11T01:20:24.663Z,3.97
2023-04-11T01:22:51.053Z,5.70
2023-04-11T01:25:17.485Z,5.95
2023-04-11T01:27:43.934Z,5.22
2023-04-11T01:30:10.373Z,5.35
2023-04-11T01:32:36.922Z,5.60
2023-04-11T01:35:03.402Z,5.25
2023-04-11T01:37:29.941Z,5.78
2023-04-11T01:39:56.360Z,5.78
2023-04-11T01:42:22.826Z,8.13
2023-04-11T01:44:49.218Z,6.82
2023-04-11T01:47:15.634Z,9.10
2023-04-11T01:49:42.073Z,8.82
2023-04-11T01:52:08.716Z,7.95
2023-04-11T01:54:35.387Z,8.25
2023-04-11T01:57:01.843Z,8.05
2023-04-11T01:59:28.326Z,12.18
2023-04-11T02:01:54.808Z,8.52
2023-04-11T02:04:21.461Z,10.77
2023-04-11T02:06:48.033Z,10.25
2023-04-11T02:09:14.583Z,8.82
2023-04-11T02:11:40.973Z,13.27
2023-04-11T02:14:07.576Z,10.90
2023-04-11T02:16:34.020Z,11.30
2023-04-11T02:19:00.481Z,13.18
2023-04-11T02:21:26.914Z,9.50
2023-04-11T02:23:53.348Z,10.10
2023-04-11T02:26:19.831Z,8.77
2023-04-11T02:28:46.273Z,10.75
2023-04-11T02:31:12.767Z,16.17
2023-04-11T02:33:39.167Z,22.02
2023-04-11T02:36:05.649Z,11.05
2023-04-11T02:38:32.106Z,9.68
2023-04-11T02:40:58.827Z,13.07
2023-04-11T02:43:25.270Z,10.82
2023-04-11T02:45:56.401Z,11.57
2023-04-11T02:48:28.830Z,12.18
2023-04-11T02:50:55.220Z,9.95
2023-04-11T02:53:21.650Z,11.32
2023-04-11T02:55:48.159Z,7.00
2023-04-11T02:58:14.552Z,7.25
2023-04-11T03:00:41.003Z,15.05
2023-04-11T03:03:07.685Z,9.93
2023-04-11T03:05:34.234Z,7.75
2023-04-11T03:08:00.670Z,14.52
2023-04-11T03:10:27.095Z,9.57
2023-04-11T03:12:53.464Z,6.75
2023-04-11T03:15:19.832Z,10.55
2023-04-11T03:17:46.305Z,9.45
2023-04-11T03:20:12.804Z,11.95
2023-04-11T03:22:39.267Z,9.38
2023-04-11T03:25:05.769Z,13.60
2023-04-11T03:27:32.188Z,8.50
2023-04-11T03:29:58.883Z,7.88
2023-04-11T03:32:25.319Z,9.20
2023-04-11T03:34:51.738Z,8.27
2023-04-11T03:37:18.140Z,10.82
2023-04-11T03:39:44.543Z,7.70
2023-04-11T03:42:10.998Z,12.05
2023-04-11T03:44:37.374Z,6.63
2023-04-11T03:47:03.823Z,7.38
2023-04-11T03:49:30.316Z,8.65
2023-04-11T03:51:56.726Z,5.45
2023-04-11T03:54:23.199Z,8.68
2023-04-11T03:56:49.597Z,8.70
2023-04-11T03:59:16.013Z,4.97
2023-04-11T04:01:42.531Z,4.28
2023-04-11T04:04:09.108Z,5.00
2023-04-11T04:06:35.578Z,7.95
2023-04-11T04:09:01.986Z,5.82
2023-04-11T04:11:28.398Z,2.72
2023-04-11T04:13:55.400Z,2.15
2023-04-11T04:16:22.144Z,4.20
2023-04-11T04:18:48.568Z,3.92
2023-04-11T04:21:15.076Z,5.55
2023-04-11T04:23:41.498Z,5.95
2023-04-11T04:26:08.022Z,6.55
2023-04-11T04:28:34.429Z,3.60
2023-04-11T04:31:00.872Z,5.68
2023-04-11T04:33:27.724Z,6.07
2023-04-11T04:35:54.201Z,10.35
2023-04-11T04:38:20.727Z,6.88
2023-04-11T04:40:48.964Z,8.43
2023-04-11T04:43:16.718Z,8.52
2023-04-11T04:45:43.093Z,7.15
2023-04-11T04:48:09.739Z,5.85
2023-04-11T04:50:36.181Z,8.48
2023-04-11T04:53:02.633Z,3.97
2023-04-11T04:55:29.043Z,7.13
2023-04-11T04:57:55.441Z,5.03
2023-04-11T05:00:23.091Z,7.65
2023-04-11T05:02:49.942Z,5.35
2023-04-11T05:05:16.480Z,7.80
2023-04-11T05:07:42.921Z,8.20
2023-04-11T05:10:09.363Z,2.50
2023-04-11T05:12:35.795Z,4.68
2023-04-11T05:15:02.243Z,3.95
2023-04-11T05:17:28.972Z,4.03
2023-04-11T05:19:55.382Z,3.15
2023-04-11T05:22:21.857Z,4.70
2023-04-11T05:24:48.296Z,6.28
2023-04-11T05:27:14.747Z,5.13
2023-04-11T05:29:41.175Z,3.13
2023-04-11T05:32:07.919Z,7.85
2023-04-11T05:34:34.395Z,4.97
2023-04-11T05:37:00.905Z,6.45
2023-04-11T05:39:27.342Z,5.38
2023-04-11T05:41:53.820Z,3.50
2023-04-11T05:44:20.227Z,6.18
2023-04-11T05:46:46.616Z,4.97
2023-04-11T05:49:13.091Z,6.95
2023-04-11T05:51:39.542Z,4.20
2023-04-11T05:54:05.968Z,6.00
2023-04-11T05:56:32.409Z,2.85
2023-04-11T05:58:59.003Z,3.55
2023-04-11T06:01:25.401Z,4.10
2023-04-11T06:03:51.971Z,5.13
2023-04-11T06:06:18.521Z,4.47
2023-04-11T06:08:44.979Z,6.07
2023-04-11T06:11:11.375Z,6.63
2023-04-11T06:13:37.956Z,4.88
2023-04-11T06:16:04.390Z,6.38
2023-04-11T06:18:30.863Z,6.45
2023-04-11T06:20:57.296Z,7.70
2023-04-11T06:23:23.733Z,4.32
2023-04-11T06:25:50.214Z,5.65
2023-04-11T06:28:16.638Z,4.20
2023-04-11T06:30:43.112Z,4.15
2023-04-11T06:33:09.609Z,6.38
2023-04-11T06:35:36.435Z,5.28
2023-04-11T06:38:02.930Z,5.10
2023-04-11T06:40:29.471Z,5.00
2023-04-11T06:42:55.957Z,4.78
2023-04-11T06:45:22.405Z,5.65
2023-04-11T06:47:48.914Z,9.25
2023-04-11T06:50:15.352Z,6.95
2023-04-11T06:52:41.761Z,7.20
2023-04-11T06:55:08.216Z,3.13
2023-04-11T06:57:34.666Z,8.38
2023-04-11T07:00:01.058Z,3.83
2023-04-11T07:02:27.580Z,5.43
2023-04-11T07:04:54.269Z,2.63
2023-04-11T07:07:20.766Z,7.22
2023-04-11T07:09:47.201Z,5.25
2023-04-11T07:12:13.596Z,3.38
2023-04-11T07:14:40.005Z,5.50
2023-04-11T07:17:06.446Z,5.85
2023-04-11T07:19:32.920Z,8.82
2023-04-11T07:21:59.390Z,6.63
2023-04-11T07:24:25.840Z,5.28
2023-04-11T07:26:52.217Z,5.03
2023-04-11T07:29:18.681Z,4.90
2023-04-11T07:31:45.238Z,5.72
2023-04-11T07:34:11.744Z,8.02
2023-04-11T07:36:38.182Z,4.20
2023-04-11T07:39:04.578Z,6.80
2023-04-11T07:41:30.995Z,5.63
2023-04-11T07:43:57.768Z,4.60
2023-04-11T07:46:24.474Z,8.05
2023-04-11T07:48:51.014Z,5.45
2023-04-11T07:51:17.477Z,5.65
2023-04-11T07:53:43.957Z,5.90
2023-04-11T07:56:10.449Z,5.03
2023-04-11T07:58:36.884Z,5.72
2023-04-11T08:01:03.356Z,9.18
2023-04-11T08:03:30.079Z,8.38
2023-04-11T08:05:56.614Z,7.05
2023-04-11T08:08:23.014Z,7.03
2023-04-11T08:10:51.865Z,9.15
2023-04-11T08:13:18.624Z,5.20
2023-04-11T08:15:45.066Z,4.28
2023-04-11T08:18:12.184Z,5.85
2023-04-11T08:20:39.005Z,3.53
2023-04-11T08:23:05.954Z,5.82
2023-04-11T08:25:32.442Z,4.82
2023-04-11T08:27:59.000Z,7.57
2023-04-11T08:30:25.517Z,6.20
2023-04-11T08:32:51.952Z,5.88
2023-04-11T08:35:18.384Z,3.40
2023-04-11T08:37:44.774Z,6.38
2023-04-11T08:40:11.226Z,4.82
2023-04-11T08:42:38.005Z,7.47
2023-04-11T08:45:04.454Z,6.53
2023-04-11T08:47:30.945Z,4.70
2023-04-11T08:49:57.370Z,6.00
2023-04-11T08:52:23.879Z,4.72
2023-04-11T08:54:50.307Z,8.25
2023-04-11T08:57:16.735Z,11.45
2023-04-11T08:59:43.167Z,6.63
2023-04-11T09:02:09.708Z,8.35
2023-04-11T09:04:36.414Z,4.90
2023-04-11T09:07:02.919Z,10.35
2023-04-11T09:09:29.322Z,6.10
2023-04-11T09:11:55.740Z,9.07
2023-04-11T09:14:22.177Z,5.97
2023-04-11T09:16:48.573Z,8.77
2023-04-11T09:19:15.022Z,4.32
2023-04-11T09:21:41.477Z,6.68
2023-04-11T09:24:08.131Z,5.32
2023-04-11T09:26:34.559Z,7.13
2023-04-11T09:29:01.042Z,4.95
2023-04-11T09:31:27.467Z,4.60
2023-04-11T09:33:54.059Z,5.57
2023-04-11T09:36:20.597Z,5.80
2023-04-11T09:38:47.078Z,4.22
2023-04-11T09:41:13.540Z,4.82
2023-04-11T09:43:39.993Z,6.07
2023-04-11T09:46:06.410Z,5.68
2023-04-11T09:48:45.437Z,5.63
2023-04-11T09:51:17.936Z,6.93
2023-04-11T09:53:50.614Z,4.45
2023-04-11T09:56:17.029Z,4.68
2023-04-11T09:58:43.465Z,4.07
2023-04-11T10:01:09.859Z,4.55
2023-04-11T10:03:36.420Z,7.82
2023-04-11T10:06:02.860Z,6.18
2023-04-11T10:08:29.370Z,7.18
2023-04-11T10:10:55.814Z,3.55
2023-04-11T10:13:22.252Z,4.47
2023-04-11T10:15:48.694Z,4.88
2023-04-11T10:18:15.146Z,5.95
2023-04-11T10:20:41.563Z,4.80
2023-04-11T10:23:08.104Z,6.50
2023-04-11T10:25:34.566Z,4.40
2023-04-11T10:28:01.210Z,1.52
2023-04-11T10:30:27.888Z,6.60
2023-04-11T10:32:54.360Z,4.03
2023-04-11T10:35:20.832Z,4.22
2023-04-11T10:37:47.292Z,6.18
2023-04-11T10:40:13.706Z,7.28
2023-04-11T10:42:40.179Z,3.22
2023-04-11T10:45:06.623Z,5.18
2023-04-11T10:47:33.033Z,4.10
2023-04-11T10:49:59.500Z,5.75
2023-04-11T10:52:26.923Z,5.55
2023-04-11T10:54:53.370Z,6.97
2023-04-11T10:57:19.929Z,4.13
2023-04-11T10:59:46.352Z,4.25
2023-04-11T11:02:12.913Z,5.28
2023-04-11T11:04:39.558Z,5.30
2023-04-11T11:07:06.083Z,5.68
2023-04-11T11:09:32.481Z,4.20
2023-04-11T11:11:59.081Z,3.60
2023-04-11T11:14:25.526Z,4.95
2023-04-11T11:16:51.960Z,6.22
2023-04-11T11:19:18.342Z,3.15
2023-04-11T11:21:44.733Z,2.92
2023-04-11T11:24:11.142Z,3.17
2023-04-11T11:26:37.582Z,4.53
2023-04-11T11:29:04.081Z,3.55
2023-04-11T11:31:30.502Z,5.07
2023-04-11T11:34:04.691Z,3.60
2023-04-11T11:36:40.146Z,3.20
2023-04-11T11:39:06.663Z,4.90
2023-04-11T11:41:33.128Z,4.55
2023-04-11T11:43:59.545Z,4.30
2023-04-11T11:46:26.032Z,6.65
2023-04-11T11:48:52.546Z,4.65
2023-04-11T11:51:18.975Z,3.70
2023-04-11T11:53:45.396Z,3.45
2023-04-11T11:56:11.844Z,3.97
2023-04-11T11:58:38.268Z,4.13
2023-04-11T12:01:04.712Z,3.88
2023-04-11T12:03:31.250Z,2.70
2023-04-11T12:05:57.738Z,3.88
2023-04-11T12:08:24.119Z,2.63
2023-04-11T12:10:50.612Z,1.80
2023-04-11T12:13:17.092Z,4.32
2023-04-11T12:15:43.547Z,4.43
2023-04-11T12:18:10.067Z,3.53
2023-04-11T12:20:36.551Z,3.30
2023-04-11T12:23:02.985Z,3.28
2023-04-11T12:25:29.457Z,3.58
2023-04-11T12:27:55.953Z,4.43
2023-04-11T12:30:22.402Z,5.45
2023-04-11T12:32:48.846Z,2.58
2023-04-11T12:35:15.311Z,3.97
2023-04-11T12:37:41.741Z,3.67
2023-04-11T12:40:08.205Z,5.00
2023-04-11T12:42:39.064Z,3.78
2023-04-11T12:45:11.730Z,3.97
2023-04-11T12:47:38.255Z,2.83
2023-04-11T12:50:04.760Z,4.20
2023-04-11T12:52:31.226Z,3.63
2023-04-11T12:54:57.725Z,2.60
2023-04-11T12:57:24.223Z,3.00
2023-04-11T12:59:50.693Z,3.25
2023-04-11T13:02:17.146Z,5.53
2023-04-11T13:04:43.890Z,3.92
2023-04-11T13:07:10.468Z,3.30
2023-04-11T13:09:36.977Z,3.25
2023-04-11T13:12:03.450Z,5.50
2023-04-11T13:14:29.985Z,4.43
2023-04-11T13:16:56.386Z,4.85
2023-04-11T13:19:22.832Z,3.50
2023-04-11T13:21:49.279Z,4.38
2023-04-11T13:24:15.717Z,1.90
2023-04-11T13:26:42.171Z,3.03
2023-04-11T13:29:08.665Z,6.70
2023-04-11T13:31:35.478Z,5.30
2023-04-11T13:34:01.955Z,4.95
2023-04-11T13:36:28.583Z,4.43
2023-04-11T13:38:55.186Z,4.65
2023-04-11T13:41:21.747Z,4.72
2023-04-11T13:43:48.193Z,3.75
2023-04-11T13:46:14.768Z,2.50
2023-04-11T13:48:41.313Z,3.72
2023-04-11T13:51:08.112Z,4.05
2023-04-11T13:53:34.570Z,3.70
2023-04-11T13:56:01.038Z,5.43
2023-04-11T13:58:27.510Z,2.28
2023-04-11T14:00:54.096Z,2.00
2023-04-11T14:03:20.596Z,3.90
2023-04-11T14:05:47.117Z,4.68
2023-04-11T14:08:13.548Z,3.90
2023-04-11T14:10:39.950Z,3.30
2023-04-11T14:13:06.403Z,2.75
2023-04-11T14:15:32.878Z,5.03
2023-04-11T14:17:59.338Z,3.75
2023-04-11T14:20:25.790Z,2.22
2023-04-11T14:22:52.239Z,3.05
2023-04-11T14:25:18.700Z,3.60
2023-04-11T14:27:45.159Z,2.97
2023-04-11T14:30:11.520Z,4.93
2023-04-11T14:32:37.955Z,4.22
2023-04-11T14:35:04.405Z,3.63
2023-04-11T14:37:30.816Z,3.13
2023-04-11T14:39:57.222Z,3.70
2023-04-11T14:42:23.617Z,3.90
2023-04-11T14:44:50.076Z,2.85
2023-04-11T14:47:16.517Z,2.30
2023-04-11T14:49:42.990Z,2.90
2023-04-11T14:52:09.379Z,2.30
2023-04-11T14:54:35.790Z,2.55
2023-04-11T14:57:02.172Z,3.92
2023-04-11T14:59:28.667Z,3.25
2023-04-11T15:01:55.136Z,3.85
2023-04-11T15:04:21.591Z,3.28
2023-04-11T15:06:48.051Z,3.38
2023-04-11T15:09:14.431Z,3.80
2023-04-11T15:11:40.865Z,5.05
2023-04-11T15:14:07.616Z,4.07
2023-04-11T15:16:34.151Z,2.45
2023-04-11T15:19:00.584Z,3.90
2023-04-11T15:21:27.049Z,2.78
2023-04-11T15:23:53.444Z,4.57
2023-04-11T15:26:19.954Z,3.00
2023-04-11T15:28:46.476Z,2.22
2023-04-11T15:31:13.009Z,4.13
2023-04-11T15:33:39.526Z,2.88
2023-04-11T15:36:06.037Z,2.33
2023-04-11T15:38:32.531Z,1.77
2023-04-11T15:40:58.988Z,1.95
2023-04-11T15:43:25.406Z,2.78
2023-04-11T15:45:51.851Z,1.58
2023-04-11T15:48:18.331Z,2.08
2023-04-11T15:50:44.802Z,1.35
2023-04-11T15:53:11.254Z,2.92
2023-04-11T15:55:37.686Z,2.47
2023-04-11T15:58:04.089Z,3.30
2023-04-11T16:00:30.485Z,2.22
2023-04-11T16:02:57.142Z,1.88
2023-04-11T16:05:23.805Z,2.75
2023-04-11T16:07:50.208Z,2.83
2023-04-11T16:10:16.613Z,2.72
2023-04-11T16:12:43.224Z,4.75
2023-04-11T16:15:09.773Z,3.38
2023-04-11T16:17:36.393Z,2.33
2023-04-11T16:20:02.882Z,3.47
2023-04-11T16:22:32.038Z,1.95
2023-04-11T16:24:58.675Z,4.38
2023-04-11T16:27:25.068Z,2.25
2023-04-11T16:29:51.473Z,2.88
2023-04-11T16:32:18.158Z,2.13
2023-04-11T16:34:44.668Z,2.97
2023-04-11T16:37:11.103Z,2.38
2023-04-11T16:39:37.684Z,1.30
2023-04-11T16:42:04.097Z,1.25
2023-04-11T16:44:30.469Z,2.40
2023-04-11T16:46:56.902Z,1.83
2023-04-11T16:49:23.362Z,4.80
2023-04-11T16:51:49.770Z,4.75
2023-04-11T16:54:16.265Z,4.20
2023-04-11T16:56:42.730Z,1.92
2023-04-11T16:59:09.192Z,4.38
2023-04-11T17:01:35.735Z,3.42
2023-04-11T17:04:02.460Z,2.00
2023-04-11T17:06:29.024Z,1.95
2023-04-11T17:08:55.460Z,1.73
2023-04-11T17:11:21.890Z,2.63
2023-04-11T17:13:48.333Z,1.42
2023-04-11T17:16:14.834Z,1.27
2023-04-11T17:18:41.265Z,2.05
2023-04-11T17:21:07.735Z,2.88
2023-04-11T17:23:42.436Z,2.22
2023-04-11T17:26:09.954Z,3.15
2023-04-11T17:28:36.511Z,3.17
2023-04-11T17:31:03.063Z,1.23
2023-04-11T17:33:29.654Z,0.95
2023-04-11T17:35:56.143Z,3.30
2023-04-11T17:38:22.639Z,1.33
2023-04-11T17:40:49.078Z,1.15
2023-04-11T17:43:15.544Z,3.50
2023-04-11T17:45:41.940Z,2.10
2023-04-11T17:48:08.640Z,2.22
2023-04-11T17:50:35.186Z,1.85
2023-04-11T17:53:01.777Z,2.20
2023-04-11T17:55:28.184Z,0.73
2023-04-11T17:57:54.586Z,1.45
2023-04-11T18:00:21.033Z,0.73
2023-04-11T18:02:47.606Z,3.03
2023-04-11T18:05:23.036Z,0.77
2023-04-11T18:07:50.607Z,1.13
2023-04-11T18:10:17.000Z,1.77
2023-04-11T18:12:43.422Z,2.22
2023-04-11T18:15:09.902Z,1.00
2023-04-11T18:17:36.433Z,2.08
2023-04-11T18:20:02.856Z,0.50
2023-04-11T18:22:29.240Z,1.08
2023-04-11T18:24:55.617Z,0.95
2023-04-11T18:27:22.055Z,1.60
2023-04-11T18:29:48.490Z,1.10
2023-04-11T18:32:14.878Z,1.67
2023-04-11T18:34:41.339Z,1.20
2023-04-11T18:37:07.743Z,1.25
2023-04-11T18:39:34.348Z,1.60
2023-04-11T18:42:00.969Z,3.72
2023-04-11T18:44:27.612Z,0.90
2023-04-11T18:46:55.894Z,1.80
2023-04-11T18:49:23.684Z,0.90
2023-04-11T18:51:50.048Z,2.50
2023-04-11T18:54:16.501Z,1.73
2023-04-11T18:56:45.642Z,1.55
2023-04-11T19:01:40.472Z,0.80
2023-04-11T19:04:07.849Z,1.33
2023-04-11T19:06:34.718Z,1.00
2023-04-11T19:09:01.130Z,1.13
2023-04-11T19:11:27.581Z,1.00
2023-04-11T19:13:54.714Z,2.20
2023-04-11T19:16:21.336Z,2.72
2023-04-11T19:18:47.798Z,1.40
2023-04-11T19:21:14.218Z,1.13
2023-04-11T19:23:40.687Z,1.05
2023-04-11T19:26:07.127Z,1.30
2023-04-11T19:28:33.528Z,2.10
2023-04-11T19:30:59.923Z,1.67
2023-04-11T19:33:26.361Z,2.47
2023-04-11T19:35:52.804Z,3.08
2023-04-11T19:38:19.260Z,1.48
2023-04-11T19:40:45.663Z,2.58
2023-04-11T19:43:12.122Z,1.33
2023-04-11T19:45:38.700Z,1.25
2023-04-11T19:48:05.132Z,0.98
2023-04-11T19:50:31.536Z,0.98
2023-04-11T19:52:57.987Z,1.00
2023-04-11T19:55:24.554Z,1.92
2023-04-11T19:57:50.995Z,1.85
2023-04-11T20:00:17.746Z,1.48
2023-04-11T20:02:44.500Z,2.03
2023-04-11T20:05:11.186Z,2.90
2023-04-11T20:07:37.778Z,2.95
2023-04-11T20:10:04.160Z,4.70
2023-04-11T20:12:30.567Z,2.22
2023-04-11T20:14:56.963Z,1.60
2023-04-11T20:17:23.461Z,1.83
2023-04-11T20:19:49.850Z,1.67
2023-04-11T20:22:16.225Z,5.47
2023-04-11T20:24:42.644Z,5.53
2023-04-11T20:27:09.044Z,4.05
2023-04-11T20:29:35.485Z,4.20
2023-04-11T20:32:02.011Z,2.88
2023-04-11T20:34:28.725Z,3.55
2023-04-11T20:36:55.298Z,2.63
2023-04-11T20:39:21.916Z,3.25
2023-04-11T20:41:48.395Z,2.30
2023-04-11T20:44:14.788Z,2.53
2023-04-11T20:46:41.307Z,1.20
2023-04-11T20:49:07.888Z,3.13
2023-04-11T20:51:34.288Z,4.38
2023-04-11T20:54:00.786Z,1.85
2023-04-11T20:56:27.256Z,1.88
2023-04-11T20:58:53.705Z,2.17
2023-04-11T21:01:20.212Z,3.88
2023-04-11T21:03:46.669Z,2.17
2023-04-11T21:06:13.124Z,1.77
2023-04-11T21:08:39.546Z,2.22
2023-04-11T21:11:06.066Z,1.27
2023-04-11T21:13:32.550Z,3.25
2023-04-11T21:15:59.088Z,2.45
2023-04-11T21:18:25.639Z,2.63
2023-04-11T21:20:52.079Z,5.63
2023-04-11T21:23:18.541Z,2.53
2023-04-11T21:25:44.973Z,2.72
2023-04-11T21:28:11.367Z,4.75
2023-04-11T21:30:37.880Z,3.45
2023-04-11T21:33:04.352Z,2.33
2023-04-11T21:35:30.812Z,4.93
2023-04-11T21:37:57.215Z,2.00
2023-04-11T21:40:23.685Z,5.13
2023-04-11T21:42:50.132Z,2.45
2023-04-11T21:45:16.542Z,2.88
2023-04-11T21:47:43.009Z,3.53
2023-04-11T21:50:09.496Z,3.22
2023-04-11T21:52:35.939Z,2.85
2023-04-11T21:55:02.351Z,3.25
2023-04-11T21:57:28.948Z,2.55
2023-04-11T21:59:55.419Z,3.15
2023-04-11T22:02:22.096Z,2.92
2023-04-11T22:05:04.956Z,2.80
2023-04-11T22:07:33.773Z,2.05
2023-04-11T22:10:00.380Z,2.55
2023-04-11T22:12:26.802Z,4.18
2023-04-11T22:14:53.254Z,3.17
2023-04-11T22:17:19.699Z,2.20
2023-04-11T22:19:46.130Z,4.28
2023-04-11T22:22:12.512Z,2.65
2023-04-11T22:24:38.923Z,2.45
2023-04-11T22:27:05.338Z,3.22
2023-04-11T22:29:31.746Z,2.97
2023-04-11T22:31:58.232Z,3.88
2023-04-11T22:34:24.716Z,2.25
2023-04-11T22:36:51.180Z,5.45
2023-04-11T22:39:17.595Z,3.80
2023-04-11T22:41:44.022Z,3.03
2023-04-11T22:44:10.422Z,2.53
2023-04-11T22:46:36.866Z,2.53
2023-04-11T22:49:03.263Z,3.47
2023-04-11T22:51:29.981Z,5.10
2023-04-11T22:53:56.757Z,1.65
2023-04-11T22:56:23.295Z,3.05
2023-04-11T22:58:49.703Z,2.70
2023-04-11T23:01:16.182Z,3.80
2023-04-11T23:03:42.662Z,3.17
2023-04-11T23:06:09.038Z,4.57
2023-04-11T23:08:35.483Z,4.40
2023-04-11T23:11:02.009Z,5.45
2023-04-11T23:13:28.474Z,5.00
2023-04-11T23:15:54.874Z,4.25
2023-04-11T23:18:21.271Z,3.47
2023-04-11T23:20:47.644Z,5.15
2023-04-11T23:23:14.102Z,3.97
2023-04-11T23:25:40.493Z,4.28
2023-04-11T23:28:06.893Z,4.03
2023-04-11T23:30:33.305Z,2.53
2023-04-11T23:33:00.114Z,4.07
2023-04-11T23:35:26.649Z,4.90
2023-04-11T23:37:53.112Z,2.75
2023-04-11T23:40:19.549Z,4.15
2023-04-11T23:42:45.956Z,4.30
2023-04-11T23:45:12.354Z,3.38
2023-04-11T23:47:38.771Z,4.43
2023-04-11T23:50:05.254Z,3.60
2023-04-11T23:52:31.670Z,3.83
2023-04-11T23:54:58.111Z,3.25
2023-04-11T23:57:24.547Z,4.18
2023-04-11T23:59:50.964Z,2.67
